createdAt,value
2019-05-15T00:00:48.019Z,100916.61
2019-05-15T00:03:20.614Z,100920.98
2019-05-15T00:05:52.037Z,100924.20
2019-05-15T00:08:24.511Z,100927.97
2019-05-15T00:10:58.080Z,100928.59
2019-05-15T00:13:29.666Z,100924.34
2019-05-15T00:16:01.728Z,100928.23
2019-05-15T00:18:33.384Z,100930.83
2019-05-15T00:21:05.138Z,100922.19
2019-05-15T00:23:38.720Z,100929.59
2019-05-15T00:26:10.939Z,100932.64
2019-05-15T00:28:42.788Z,100933.64
2019-05-15T00:31:14.958Z,100928.22
2019-05-15T00:33:48.248Z,100928.87
2019-05-15T00:36:20.309Z,100932.34
2019-05-15T00:38:51.968Z,100930.32
2019-05-15T00:41:23.726Z,100938.86
2019-05-15T00:43:58.557Z,100939.40
2019-05-15T00:46:29.983Z,100939.66
2019-05-15T00:49:01.840Z,100945.26
2019-05-15T00:51:33.803Z,100942.70
2019-05-15T00:54:08.285Z,100942.52
2019-05-15T00:56:39.784Z,100937.11
2019-05-15T00:59:23.198Z,100943.25
2019-05-15T01:01:45.108Z,100949.09
2019-05-15T01:04:18.749Z,100945.60
2019-05-15T01:06:52.657Z,100941.27
2019-05-15T01:09:25.429Z,100943.95
2019-05-15T01:11:58.715Z,100939.02
2019-05-15T01:14:30.371Z,100942.91
2019-05-15T01:17:02.139Z,100941.59
2019-05-15T01:19:34.095Z,100939.94
2019-05-15T01:22:05.640Z,100934.36
2019-05-15T01:24:38.922Z,100936.81
2019-05-15T01:27:10.606Z,100937.64
2019-05-15T01:29:45.190Z,100938.06
2019-05-15T01:32:15.952Z,100938.03
2019-05-15T01:34:49.031Z,100936.02
2019-05-15T01:37:20.689Z,100948.98
2019-05-15T01:39:52.378Z,100945.89
2019-05-15T01:42:24.106Z,100939.71
2019-05-15T01:44:56.071Z,100939.20
2019-05-15T01:47:28.169Z,100943.16
2019-05-15T01:49:59.895Z,100947.33
2019-05-15T01:52:32.009Z,100949.39
2019-05-15T01:55:04.885Z,100955.53
2019-05-15T01:57:38.391Z,100954.36
2019-05-15T02:00:10.489Z,100964.64
2019-05-15T02:02:42.680Z,100962.78
2019-05-15T02:05:15.150Z,100961.45
2019-05-15T02:07:47.892Z,100968.30
2019-05-15T02:10:19.479Z,100968.30
2019-05-15T02:12:51.132Z,100958.08
2019-05-15T02:15:22.889Z,100963.09
2019-05-15T02:17:54.747Z,100955.13
2019-05-15T02:20:28.954Z,100961.02
2019-05-15T02:22:59.810Z,100950.03
2019-05-15T02:25:31.251Z,100957.80
2019-05-15T02:28:03.165Z,100963.78
2019-05-15T02:30:34.786Z,100960.38
2019-05-15T02:33:10.079Z,100960.75
2019-05-15T02:35:39.967Z,100960.19
2019-05-15T02:38:15.379Z,100960.52
2019-05-15T02:40:44.561Z,100963.80
2019-05-15T02:43:19.015Z,100953.59
2019-05-15T02:45:50.845Z,100956.75
2019-05-15T02:48:22.502Z,100961.66
2019-05-15T02:50:54.964Z,100955.72
2019-05-15T02:53:29.923Z,100954.66
2019-05-15T02:56:00.838Z,100956.00
2019-05-15T02:58:32.392Z,100960.28
2019-05-15T03:01:04.456Z,100953.52
2019-05-15T03:03:38.749Z,100956.34
2019-05-15T03:06:10.205Z,100961.55
2019-05-15T03:08:41.770Z,100965.37
2019-05-15T03:11:13.767Z,100966.16
2019-05-15T03:13:46.108Z,100961.58
2019-05-15T03:16:19.384Z,100959.26
2019-05-15T03:18:55.265Z,100962.70
2019-05-15T03:21:24.147Z,100967.59
2019-05-15T03:23:59.252Z,100959.78
2019-05-15T03:26:30.088Z,100962.05
2019-05-15T03:29:01.980Z,100961.20
2019-05-15T03:31:49.424Z,100956.95
2019-05-15T03:34:19.293Z,100955.76
2019-05-15T03:36:44.948Z,100958.27
2019-05-15T03:39:14.435Z,100961.64
2019-05-15T03:41:49.539Z,100963.33
2019-05-15T03:44:20.057Z,100956.83
2019-05-15T03:46:51.754Z,100955.84
2019-05-15T03:49:23.506Z,100961.12
2019-05-15T03:51:55.305Z,100964.81
2019-05-15T03:54:29.313Z,100966.58
2019-05-15T03:57:00.214Z,100970.26
2019-05-15T03:59:31.781Z,100972.74
2019-05-15T04:02:03.970Z,100968.50
2019-05-15T04:04:38.629Z,100973.45
2019-05-15T04:07:10.009Z,100965.67
2019-05-15T04:09:41.460Z,100967.56
2019-05-15T04:12:13.229Z,100971.60
2019-05-15T04:14:45.284Z,100978.69
2019-05-15T04:17:19.721Z,100970.77
2019-05-15T04:19:49.927Z,100967.55
2019-05-15T04:22:21.786Z,100970.05
2019-05-15T04:24:54.879Z,100965.82
2019-05-15T04:27:29.012Z,100968.33
2019-05-15T04:30:00.741Z,100972.11
2019-05-15T04:32:33.110Z,100978.80
2019-05-15T04:35:09.217Z,100982.08
2019-05-15T04:37:41.295Z,100988.53
2019-05-15T04:40:13.507Z,100991.79
2019-05-15T04:42:45.462Z,100996.66
2019-05-15T04:45:19.453Z,100995.52
2019-05-15T04:47:50.725Z,100998.17
2019-05-15T04:50:22.276Z,100996.03
2019-05-15T04:52:54.393Z,100994.16
2019-05-15T04:55:28.974Z,100995.74
2019-05-15T04:57:59.714Z,100988.41
2019-05-15T05:00:49.698Z,100995.75
2019-05-15T05:03:22.240Z,101001.59
2019-05-15T05:05:54.016Z,101001.44
2019-05-15T05:08:30.386Z,101011.34
2019-05-15T05:11:01.727Z,101014.63
2019-05-15T05:13:34.619Z,101016.70
2019-05-15T05:16:09.219Z,101023.18
2019-05-15T05:18:41.674Z,101023.71
2019-05-15T05:21:13.566Z,101020.59
2019-05-15T05:23:45.476Z,101028.58
2019-05-15T05:26:18.517Z,101027.69
2019-05-15T05:28:50.279Z,101028.86
2019-05-15T05:31:21.927Z,101028.92
2019-05-15T05:33:53.786Z,101024.70
2019-05-15T05:36:27.900Z,101033.06
2019-05-15T05:38:59.555Z,101035.18
2019-05-15T05:41:31.324Z,101028.23
2019-05-15T05:44:03.587Z,101030.22
2019-05-15T05:46:35.036Z,101026.42
2019-05-15T05:49:08.076Z,101022.98
2019-05-15T05:51:39.777Z,101022.23
2019-05-15T05:54:12.247Z,101026.69
2019-05-15T05:56:44.019Z,101030.18
2019-05-15T05:59:15.705Z,101035.17
2019-05-15T06:01:48.547Z,101026.86
2019-05-15T06:04:20.201Z,101023.45
2019-05-15T06:07:05.910Z,101025.09
2019-05-15T06:09:27.652Z,101034.67
2019-05-15T06:11:59.264Z,101030.67
2019-05-15T06:14:30.816Z,101027.63
2019-05-15T06:17:02.469Z,101030.26
2019-05-15T06:19:34.430Z,101027.52
2019-05-15T06:22:08.592Z,101029.14
2019-05-15T06:24:39.279Z,101019.14
2019-05-15T06:27:11.036Z,101030.92
2019-05-15T06:29:42.995Z,101031.89
2019-05-15T06:32:14.446Z,101035.62
2019-05-15T06:34:48.368Z,101036.03
2019-05-15T06:37:19.845Z,101034.92
2019-05-15T06:39:51.567Z,101033.80
2019-05-15T06:42:23.076Z,101027.12
2019-05-15T06:44:54.466Z,101032.11
2019-05-15T06:47:28.336Z,101034.05
2019-05-15T06:49:59.105Z,101033.83
2019-05-15T06:52:30.770Z,101034.59
2019-05-15T06:55:02.623Z,101036.73
2019-05-15T06:57:34.580Z,101036.17
2019-05-15T07:00:08.426Z,101036.63
2019-05-15T07:02:40.758Z,101027.78
2019-05-15T07:05:12.628Z,101035.26
2019-05-15T07:07:44.167Z,101028.06
2019-05-15T07:10:16.017Z,101023.16
2019-05-15T07:12:51.002Z,101019.66
2019-05-15T07:15:21.078Z,101020.83
2019-05-15T07:17:52.534Z,101027.13
2019-05-15T07:20:24.376Z,101028.48
2019-05-15T07:22:58.444Z,101040.17
2019-05-15T07:25:29.409Z,101035.23
2019-05-15T07:28:01.098Z,101029.89
2019-05-15T07:30:32.752Z,101028.47
2019-05-15T07:33:04.302Z,101029.95
2019-05-15T07:35:38.473Z,101026.70
2019-05-15T07:38:09.556Z,101029.45
2019-05-15T07:40:41.113Z,101034.50
2019-05-15T07:43:13.077Z,101034.27
2019-05-15T07:45:44.917Z,101037.65
2019-05-15T07:48:18.480Z,101035.44
2019-05-15T07:50:50.037Z,101030.63
2019-05-15T07:53:21.847Z,101030.45
2019-05-15T07:55:53.510Z,101026.93
2019-05-15T07:58:25.053Z,101030.00
2019-05-15T08:00:58.984Z,101032.82
2019-05-15T08:03:31.134Z,101029.07
2019-05-15T08:06:03.269Z,101037.44
2019-05-15T08:08:34.949Z,101043.00
2019-05-15T08:11:17.517Z,101043.87
2019-05-15T08:13:39.904Z,101038.55
2019-05-15T08:16:11.856Z,101033.99
2019-05-15T08:18:43.409Z,101029.55
2019-05-15T08:21:15.112Z,101035.30
2019-05-15T08:23:48.434Z,101023.61
2019-05-15T08:26:20.323Z,101031.59
2019-05-15T08:28:51.892Z,101025.82
2019-05-15T08:31:23.731Z,101028.69
2019-05-15T08:34:09.092Z,101024.53
2019-05-15T08:36:31.271Z,101022.14
2019-05-15T08:39:04.752Z,101030.64
2019-05-15T08:41:38.835Z,101028.50
2019-05-15T08:44:09.989Z,101031.74
2019-05-15T08:46:44.302Z,101029.94
2019-05-15T08:49:14.942Z,101035.29
2019-05-15T08:51:48.635Z,101032.88
2019-05-15T08:54:20.398Z,101037.48
2019-05-15T08:56:51.976Z,101036.82
2019-05-15T08:59:23.710Z,101036.84
2019-05-15T09:01:55.684Z,101043.81
2019-05-15T09:04:33.890Z,101040.02
2019-05-15T09:07:01.253Z,101044.23
2019-05-15T09:09:34.016Z,101029.83
2019-05-15T09:12:08.254Z,101026.11
2019-05-15T09:14:39.891Z,101034.65
2019-05-15T09:17:11.958Z,101026.70
2019-05-15T09:19:43.658Z,101030.05
2019-05-15T09:22:15.686Z,101032.11
2019-05-15T09:24:48.867Z,101029.09
2019-05-15T09:27:20.616Z,101035.86
2019-05-15T09:29:52.482Z,101030.69
2019-05-15T09:32:24.237Z,101027.73
2019-05-15T09:34:59.003Z,101032.23
2019-05-15T09:37:29.389Z,101017.89
2019-05-15T09:40:01.355Z,101020.06
2019-05-15T09:42:38.711Z,101026.02
2019-05-15T09:45:09.786Z,101027.34
2019-05-15T09:47:41.294Z,101031.84
2019-05-15T09:50:13.052Z,101026.32
2019-05-15T09:52:44.751Z,101025.64
2019-05-15T09:55:18.003Z,101027.20
2019-05-15T09:57:49.701Z,101026.84
2019-05-15T10:00:22.519Z,101035.12
2019-05-15T10:02:54.449Z,101032.95
2019-05-15T10:05:28.001Z,101043.81
2019-05-15T10:07:59.490Z,101041.99
2019-05-15T10:10:31.350Z,101045.44
2019-05-15T10:13:03.415Z,101047.09
2019-05-15T10:15:34.970Z,101039.42
2019-05-15T10:18:09.734Z,101037.83
2019-05-15T10:20:40.126Z,101037.47
2019-05-15T10:23:11.913Z,101031.02
2019-05-15T10:25:43.838Z,101031.47
2019-05-15T10:28:18.662Z,101030.41
2019-05-15T10:30:49.756Z,101025.77
2019-05-15T10:33:21.878Z,101031.09
2019-05-15T10:35:53.321Z,101028.77
2019-05-15T10:38:25.385Z,101031.20
2019-05-15T10:41:07.964Z,101026.67
2019-05-15T10:43:30.029Z,101029.17
2019-05-15T10:46:01.698Z,101028.10
2019-05-15T10:48:34.565Z,101028.05
2019-05-15T10:51:09.762Z,101024.87
2019-05-15T10:53:40.597Z,101026.41
2019-05-15T10:56:12.314Z,101024.83
2019-05-15T10:58:43.745Z,101021.45
2019-05-15T11:01:16.081Z,101022.52
2019-05-15T11:03:49.540Z,101022.38
2019-05-15T11:06:20.761Z,101022.42
2019-05-15T11:08:52.623Z,101019.66
2019-05-15T11:11:24.073Z,101023.27
2019-05-15T11:14:00.267Z,101029.51
2019-05-15T11:16:28.947Z,101027.74
2019-05-15T11:19:00.679Z,101025.04
2019-05-15T11:21:32.640Z,101023.61
2019-05-15T11:24:04.398Z,101023.32
2019-05-15T11:26:36.051Z,101019.28
2019-05-15T11:29:09.662Z,101019.17
2019-05-15T11:31:41.099Z,101015.98
2019-05-15T11:34:12.855Z,101023.55
2019-05-15T11:36:44.521Z,101023.17
2019-05-15T11:39:18.252Z,101013.15
2019-05-15T11:41:50.096Z,101015.90
2019-05-15T11:44:21.732Z,101017.25
2019-05-15T11:46:53.494Z,101015.79
2019-05-15T11:49:25.041Z,101007.91
2019-05-15T11:52:00.674Z,101010.63
2019-05-15T11:54:31.220Z,101011.22
2019-05-15T11:57:02.869Z,101008.30
2019-05-15T11:59:34.837Z,101006.87
2019-05-15T12:02:08.535Z,101006.78
2019-05-15T12:04:40.497Z,101007.82
2019-05-15T12:07:12.255Z,101013.17
2019-05-15T12:09:43.703Z,101006.52
2019-05-15T12:12:15.153Z,101010.22
2019-05-15T12:14:49.614Z,101001.61
2019-05-15T12:17:20.100Z,100993.11
2019-05-15T12:19:58.408Z,100998.63
2019-05-15T12:22:24.920Z,100997.11
2019-05-15T12:25:00.147Z,100986.66
2019-05-15T12:27:29.511Z,100994.67
2019-05-15T12:30:01.371Z,100995.30
2019-05-15T12:32:36.830Z,100996.11
2019-05-15T12:35:07.873Z,100996.23
2019-05-15T13:00:42.104Z,100990.09
2019-05-15T13:03:14.373Z,100985.13
2019-05-15T13:05:48.394Z,100985.78
2019-05-15T13:08:19.729Z,100977.78
2019-05-15T13:10:51.184Z,100976.36
2019-05-15T13:13:23.143Z,100980.22
2019-05-15T13:15:54.806Z,100983.36
2019-05-15T13:18:28.453Z,100979.43
2019-05-15T13:20:59.809Z,100982.57
2019-05-15T13:23:31.627Z,100980.80
2019-05-15T13:26:03.793Z,100991.03
2019-05-15T13:28:35.728Z,100991.18
2019-05-15T13:31:09.173Z,100987.67
2019-05-15T13:33:41.090Z,100989.31
2019-05-15T13:36:12.437Z,100990.80
2019-05-15T13:38:44.188Z,100983.56
2019-05-15T13:41:18.935Z,100986.71
2019-05-15T13:43:50.159Z,100986.35
2019-05-15T13:46:21.945Z,100980.91
2019-05-15T13:48:53.985Z,100985.27
2019-05-15T13:51:25.843Z,100983.38
2019-05-15T13:53:57.811Z,100983.42
2019-05-15T13:56:29.464Z,100984.97
2019-05-15T13:59:02.348Z,100977.23
2019-05-15T14:01:34.363Z,100983.31
2019-05-15T14:04:08.579Z,100980.04
2019-05-15T14:06:40.894Z,100992.41
2019-05-15T14:09:12.449Z,100986.58
2019-05-15T14:11:44.409Z,100989.62
2019-05-15T14:14:15.767Z,100980.71
2019-05-15T14:16:49.131Z,100983.62
2019-05-15T14:19:20.805Z,100987.59
2019-05-15T14:21:52.565Z,100985.93
2019-05-15T14:24:24.628Z,100982.76
2019-05-15T14:26:59.146Z,100987.09
2019-05-15T14:29:30.089Z,100982.89
2019-05-15T14:32:02.767Z,100988.02
2019-05-15T14:34:34.526Z,100984.23
2019-05-15T14:37:08.525Z,100988.42
2019-05-15T14:39:39.188Z,100986.52
2019-05-15T14:42:10.822Z,100981.22
2019-05-15T14:44:42.574Z,100980.58
2019-05-15T14:47:14.237Z,100977.48
2019-05-15T14:49:49.277Z,100973.17
2019-05-15T14:52:19.399Z,100978.12
2019-05-15T14:54:50.841Z,100976.05
2019-05-15T14:57:22.696Z,100966.67
2019-05-15T14:59:54.480Z,100971.12
2019-05-15T15:02:26.732Z,100976.37
2019-05-15T15:04:59.471Z,100977.01
2019-05-15T15:07:31.978Z,100968.94
2019-05-15T15:10:04.920Z,100967.28
2019-05-15T15:12:39.177Z,100964.38
2019-05-15T15:15:10.709Z,100967.53
2019-05-15T15:17:42.693Z,100969.39
2019-05-15T15:20:14.864Z,100967.00
2019-05-15T15:22:48.596Z,100964.19
2019-05-15T15:25:20.219Z,100973.59
2019-05-15T15:27:52.076Z,100966.88
2019-05-15T15:30:24.043Z,100964.68
2019-05-15T15:32:57.613Z,100966.74
2019-05-15T15:35:28.998Z,100967.53
2019-05-15T15:38:01.571Z,100967.82
2019-05-15T15:40:33.322Z,100966.25
2019-05-15T15:43:05.396Z,100967.95
2019-05-15T15:45:39.016Z,100963.36
2019-05-15T15:48:10.047Z,100969.35
2019-05-15T15:50:41.578Z,100969.05
2019-05-15T15:53:13.698Z,100970.61
2019-05-15T15:55:45.611Z,100966.92
2019-05-15T15:58:19.712Z,100967.27
2019-05-15T16:00:50.327Z,100966.08
2019-05-15T16:03:21.750Z,100965.98
2019-05-15T16:05:53.331Z,100962.02
2019-05-15T16:08:24.819Z,100959.02
2019-05-15T16:10:56.186Z,100958.70
2019-05-15T16:13:29.199Z,100953.14
2019-05-15T16:16:00.913Z,100948.71
2019-05-15T16:18:32.520Z,100951.41
2019-05-15T16:21:04.027Z,100946.83
2019-05-15T16:23:42.677Z,100952.23
2019-05-15T16:26:14.050Z,100948.38
2019-05-15T16:28:45.483Z,100946.23
2019-05-15T16:31:18.630Z,100946.70
2019-05-15T16:33:50.346Z,100946.39
2019-05-15T16:36:21.873Z,100951.86
2019-05-15T16:39:05.320Z,100947.97
2019-05-15T16:41:28.838Z,100948.84
2019-05-15T16:43:59.781Z,100953.19
2019-05-15T16:46:31.285Z,100954.20
2019-05-15T16:49:03.010Z,100951.77
2019-05-15T16:51:34.444Z,100954.84
2019-05-15T16:54:08.429Z,100954.23
2019-05-15T16:56:40.243Z,100952.52
2019-05-15T16:59:11.948Z,100956.72
2019-05-15T17:01:44.101Z,100962.28
2019-05-15T17:04:18.031Z,100963.02
2019-05-15T17:06:49.461Z,100961.54
2019-05-15T17:09:21.868Z,100960.05
2019-05-15T17:11:53.821Z,100958.80
2019-05-15T17:14:28.807Z,100955.72
2019-05-15T17:16:59.585Z,100957.16
2019-05-15T17:19:31.086Z,100956.65
2019-05-15T17:22:02.544Z,100952.69
2019-05-15T17:24:33.929Z,100961.37
2019-05-15T17:27:05.488Z,100952.73
2019-05-15T17:29:38.510Z,100948.73
2019-05-15T17:32:10.028Z,100954.00
2019-05-15T17:34:41.429Z,100951.55
2019-05-15T17:37:12.795Z,100954.33
2019-05-15T17:39:44.227Z,100963.72
2019-05-15T17:42:18.209Z,100963.89
2019-05-15T17:44:49.694Z,100966.42
2019-05-15T17:47:21.013Z,100967.83
2019-05-15T17:49:51.600Z,100966.19
2019-05-15T17:52:23.149Z,100973.17
2019-05-15T17:54:54.944Z,100970.23
2019-05-15T17:57:28.458Z,100978.12
2019-05-15T17:59:59.875Z,100976.98
2019-05-15T18:02:31.930Z,100975.28
2019-05-15T18:05:04.958Z,100981.28
2019-05-15T18:07:38.849Z,100984.03
2019-05-15T18:10:10.423Z,100979.78
2019-05-15T18:12:42.016Z,100980.23
2019-05-15T18:15:14.071Z,100983.56
2019-05-15T18:17:47.921Z,100984.85
2019-05-15T18:20:29.440Z,100989.28
2019-05-15T18:23:01.790Z,100984.62
2019-05-15T18:25:33.252Z,100986.83
2019-05-15T18:28:05.046Z,100983.29
2019-05-15T18:30:38.858Z,100979.28
2019-05-15T18:33:10.177Z,100977.41
2019-05-15T18:35:41.706Z,100981.86
2019-05-15T18:38:13.083Z,100981.30
2019-05-15T18:40:44.544Z,100984.16
2019-05-15T18:43:17.986Z,100987.55
2019-05-15T18:45:49.424Z,100992.58
2019-05-15T18:48:20.848Z,100986.92
2019-05-15T18:50:52.124Z,100989.03
2019-05-15T18:53:24.006Z,100984.98
2019-05-15T18:55:55.529Z,100987.17
2019-05-15T18:58:26.993Z,100988.01
2019-05-15T19:00:59.315Z,100987.55
2019-05-15T19:03:31.271Z,100978.50
2019-05-15T19:06:02.964Z,100990.17
2019-05-15T19:08:35.381Z,100990.64
2019-05-15T19:11:07.044Z,100983.73
2019-05-15T19:13:38.944Z,100987.52
2019-05-15T19:16:10.693Z,100990.14
2019-05-15T19:18:42.358Z,100988.23
2019-05-15T19:21:13.902Z,100988.50
2019-05-15T19:23:47.346Z,100991.00
2019-05-15T19:26:18.519Z,100983.91
2019-05-15T19:28:49.170Z,100982.45
2019-05-15T19:31:26.618Z,100992.09
2019-05-15T19:33:53.729Z,100989.72
2019-05-15T19:36:24.335Z,100992.78
2019-05-15T19:38:55.473Z,100991.47
2019-05-15T19:41:28.865Z,100982.18
2019-05-15T19:44:00.894Z,100987.05
2019-05-15T19:46:32.470Z,100993.77
2019-05-15T19:49:04.225Z,100984.75
2019-05-15T19:51:38.111Z,100987.84
2019-05-15T19:54:10.196Z,100983.84
2019-05-15T19:56:42.836Z,100985.78
2019-05-15T19:59:14.493Z,100986.73
2019-05-15T20:01:48.480Z,100986.41
2019-05-15T20:04:19.500Z,100994.70
2019-05-15T20:06:51.040Z,100985.84
2019-05-15T20:09:22.563Z,100983.92
2019-05-15T20:11:53.918Z,100986.16
2019-05-15T20:14:25.528Z,100988.17
2019-05-15T20:16:58.918Z,100991.23
2019-05-15T20:19:30.773Z,100991.23
2019-05-15T20:22:02.459Z,100991.05
2019-05-15T20:24:34.468Z,100993.34
2019-05-15T20:27:05.149Z,100994.05
2019-05-15T20:29:38.293Z,100989.42
2019-05-15T20:32:09.689Z,100987.48
2019-05-15T20:34:41.182Z,100990.53
2019-05-15T20:37:11.843Z,100982.53
2019-05-15T20:39:43.062Z,100984.20
2019-05-15T20:42:14.472Z,100991.22
2019-05-15T20:44:48.419Z,100985.86
2019-05-15T20:47:19.427Z,100982.61
2019-05-15T20:49:50.724Z,100975.27
2019-05-15T20:52:21.858Z,100981.45
2019-05-15T20:54:53.261Z,100983.62
2019-05-15T20:57:24.703Z,100984.80
2019-05-15T20:59:58.562Z,100982.50
2019-05-15T21:02:29.952Z,100982.33
2019-05-15T21:05:01.426Z,100981.34
2019-05-15T21:07:38.096Z,100979.23
2019-05-15T21:10:08.578Z,100979.00
2019-05-15T21:12:41.445Z,100984.97
2019-05-15T21:15:14.323Z,100975.23
2019-05-15T21:17:55.128Z,100983.90
2019-05-15T21:20:19.399Z,100987.02
2019-05-15T21:22:50.904Z,100981.25
2019-05-15T21:25:21.550Z,100983.75
2019-05-15T21:27:52.651Z,100988.81
2019-05-15T21:30:24.115Z,100990.05
2019-05-15T21:32:58.090Z,100992.57
2019-05-15T21:35:30.574Z,100990.05
2019-05-15T21:38:01.953Z,100986.22
2019-05-15T21:40:33.511Z,100994.68
2019-05-15T21:43:05.088Z,100989.09
2019-05-15T21:45:37.643Z,100984.30
2019-05-15T21:48:09.722Z,100983.92
2019-05-15T21:50:40.397Z,100990.06
2019-05-15T21:53:11.619Z,100994.75
2019-05-15T21:55:43.232Z,100987.75
2019-05-15T21:58:13.913Z,100990.45
2019-05-15T22:00:48.582Z,100988.12
2019-05-15T22:03:20.963Z,100987.47
2019-05-15T22:05:52.556Z,100984.28
2019-05-15T22:08:24.417Z,100987.47
2019-05-15T22:10:55.973Z,100984.25
2019-05-15T22:13:28.620Z,100975.40
2019-05-15T22:16:00.742Z,100971.53
2019-05-15T22:18:32.340Z,100974.20
2019-05-15T22:21:04.005Z,100968.91
2019-05-15T22:23:34.629Z,100962.84
2019-05-15T22:26:05.942Z,100967.20
2019-05-15T22:28:38.629Z,100962.84
2019-05-15T22:31:11.440Z,100966.63
2019-05-15T22:33:42.930Z,100964.72
2019-05-15T22:36:14.577Z,100968.41
2019-05-15T22:38:45.248Z,100965.93
2019-05-15T22:41:18.765Z,100975.22
2019-05-15T22:43:49.320Z,100971.67
2019-05-15T22:46:19.964Z,100975.91
2019-05-15T22:48:51.085Z,100970.38
2019-05-15T22:51:22.690Z,100967.16
2019-05-15T22:53:53.627Z,100972.53
2019-05-15T22:56:24.770Z,100966.42
2019-05-15T22:58:55.440Z,100962.37
2019-05-15T23:01:26.721Z,100958.05
2019-05-15T23:03:58.577Z,100968.87
2019-05-15T23:06:30.155Z,100970.67
2019-05-15T23:09:01.672Z,100979.55
2019-05-15T23:11:34.620Z,100979.22
2019-05-15T23:14:08.158Z,100977.80
2019-05-15T23:16:39.289Z,100981.77
2019-05-15T23:19:10.624Z,100977.75
2019-05-15T23:21:42.075Z,100975.63
2019-05-15T23:24:13.861Z,100982.39
2019-05-15T23:26:47.658Z,100976.58
2019-05-15T23:29:19.213Z,100974.39
2019-05-15T23:31:50.871Z,100978.05
2019-05-15T23:34:22.431Z,100974.75
2019-05-15T23:36:53.977Z,100980.20
2019-05-15T23:39:25.545Z,100973.41
2019-05-15T23:41:58.463Z,100981.77
2019-05-15T23:44:29.890Z,100974.97
2019-05-15T23:47:01.244Z,100971.73
2019-05-15T23:49:31.754Z,100969.69
2019-05-15T23:52:03.105Z,100966.63
2019-05-15T23:54:34.639Z,100966.80
2019-05-15T23:57:05.254Z,100973.42
2019-05-15T23:59:38.292Z,100976.52
